Time;durP1;ratioP1;P1;durP2;ratioP2;P2;SDS_P1;SDS_P2;PMS_P1;PMS_P2;Temp;Humidity;BMP_temperature;BMP_pressure;BME280_temperature;BME280_humidity;BME280_pressure;Samples;Min_cycle;Max_cycle;Signal;HPM_P1;HPM_P2
2021/12/27 09:05:41;;;;;;;13.88;10.50;;;;;;;;;;6202200;22;20028;-84
2021/12/27 09:51:54;;;;;;;14.37;10.90;;;;;;;;;;6213576;23;20008;-82
2021/12/27 09:54:19;;;;;;;13.80;11.70;;;;;;;;;;6215792;23;20027;-83
2021/12/27 09:56:45;;;;;;;16.40;12.25;;;;;;;;;;6217422;23;20326;-84
2021/12/27 09:59:10;;;;;;;15.98;12.60;;;;;;;;;;6217292;23;20331;-86
2021/12/27 10:01:36;;;;;;;15.15;12.15;;;;;;;;;;6217621;23;20020;-88
2021/12/27 10:04:02;;;;;;;16.73;12.93;;;;;;;;;;6218814;23;20424;-84
2021/12/27 10:06:30;;;;;;;16.85;13.32;;;;;;;;;;6218250;23;20420;-85
2021/12/27 10:08:58;;;;;;;17.38;12.85;;;;;;;;;;6217799;23;20047;-90
2021/12/27 10:11:32;;;;;;;16.42;12.20;;;;;;;;;;6220623;23;20000;-89
2021/12/27 10:14:04;;;;;;;16.27;12.80;;;;;;;;;;6194748;23;20439;-90
2021/12/27 10:16:32;;;;;;;15.55;12.35;;;;;;;;;;6219080;23;20008;-92
2021/12/27 10:19:00;;;;;;;16.48;12.50;;;;;;;;;;6218035;23;20004;-90
2021/12/27 10:21:26;;;;;;;15.43;12.07;;;;;;;;;;6218001;23;20011;-89
2021/12/27 10:24:19;;;;;;;14.95;12.05;;;;;;;;;;6218226;23;20051;-90
2021/12/27 10:26:49;;;;;;;17.65;12.70;;;;;;;;;;6216052;23;20012;-84
2021/12/27 10:29:25;;;;;;;14.95;12.65;;;;;;;;;;6217416;23;20434;-86
2021/12/27 10:32:04;;;;;;;15.43;12.48;;;;;;;;;;6217087;23;20001;-84
2021/12/27 10:34:40;;;;;;;15.47;12.47;;;;;;;;;;6217145;23;20008;-82
2021/12/27 10:37:07;;;;;;;15.93;13.30;;;;;;;;;;6217254;23;20218;-83
2021/12/27 10:39:53;;;;;;;14.38;11.82;;;;;;;;;;6217793;23;20084;-88
2021/12/27 10:42:30;;;;;;;15.15;12.32;;;;;;;;;;6216744;23;20008;-82
2021/12/27 10:45:00;;;;;;;13.98;11.90;;;;;;;;;;6217451;23;20007;-84
2021/12/27 10:47:28;;;;;;;16.40;13.05;;;;;;;;;;6217605;23;20483;-89
2021/12/27 10:49:55;;;;;;;18.35;12.07;;;;;;;;;;6216935;23;20375;-83
2021/12/27 10:52:20;;;;;;;16.70;12.18;;;;;;;;;;6216854;23;20344;-85
2021/12/27 10:54:46;;;;;;;16.00;12.93;;;;;;;;;;6215134;23;20005;-85
2021/12/27 10:57:12;;;;;;;17.13;12.73;;;;;;;;;;6215203;23;20012;-83
2021/12/27 10:59:38;;;;;;;16.23;12.90;;;;;;;;;;6215315;23;20027;-82
2021/12/27 11:02:11;;;;;;;17.23;13.10;;;;;;;;;;6217127;23;20431;-83
2021/12/27 11:04:37;;;;;;;17.48;13.18;;;;;;;;;;6217906;23;20007;-84
2021/12/27 11:07:05;;;;;;;14.98;12.75;;;;;;;;;;6216700;23;20087;-83
2021/12/27 11:09:34;;;;;;;16.40;13.27;;;;;;;;;;6216783;23;20011;-88
2021/12/27 11:12:01;;;;;;;20.65;15.57;;;;;;;;;;6217227;23;20004;-84
2021/12/27 11:14:26;;;;;;;19.27;14.30;;;;;;;;;;6216862;23;20111;-83
2021/12/27 11:16:53;;;;;;;16.02;13.40;;;;;;;;;;6216447;23;20032;-82
2021/12/27 11:19:19;;;;;;;17.33;13.88;;;;;;;;;;6216605;23;20388;-83
2021/12/27 11:21:47;;;;;;;13.73;12.10;;;;;;;;;;6216589;23;20031;-82
2021/12/27 11:24:13;;;;;;;15.20;12.68;;;;;;;;;;6216678;23;20446;-83
2021/12/27 11:26:41;;;;;;;15.43;12.93;;;;;;;;;;6217288;23;20001;-84
2021/12/27 11:29:17;;;;;;;15.45;12.43;;;;;;;;;;6215085;23;20013;-85
2021/12/27 11:31:45;;;;;;;13.50;12.10;;;;;;;;;;6217019;23;20000;-89
2021/12/27 11:34:14;;;;;;;13.88;12.40;;;;;;;;;;6218950;23;20007;-84
2021/12/27 11:36:44;;;;;;;16.20;12.63;;;;;;;;;;6216419;23;20008;-91
2021/12/27 11:39:39;;;;;;;15.80;13.90;;;;;;;;;;6218759;23;20039;-86
2021/12/27 11:42:11;;;;;;;15.52;12.13;;;;;;;;;;6214336;23;20012;-86
2021/12/27 11:44:49;;;;;;;13.32;11.93;;;;;;;;;;6219315;23;20323;-91
2021/12/27 11:47:26;;;;;;;15.05;12.05;;;;;;;;;;6218296;23;20058;-86
2021/12/27 11:50:00;;;;;;;14.18;12.60;;;;;;;;;;6216236;23;20012;-84
2021/12/27 11:52:27;;;;;;;15.07;12.27;;;;;;;;;;6216711;23;20015;-84
2021/12/27 11:54:59;;;;;;;13.70;12.23;;;;;;;;;;6214585;23;20016;-83
2021/12/27 11:58:00;;;;;;;13.73;12.20;;;;;;;;;;6216512;23;20004;-90
2021/12/27 12:00:28;;;;;;;14.95;12.48;;;;;;;;;;6124643;23;20013;-82
2021/12/27 12:03:03;;;;;;;15.52;11.98;;;;;;;;;;6198259;23;20200;-89
2021/12/27 12:05:42;;;;;;;13.18;11.77;;;;;;;;;;6216039;23;20423;-86
2021/12/27 12:08:08;;;;;;;14.65;12.00;;;;;;;;;;6216152;23;20004;-84
2021/12/27 12:10:36;;;;;;;13.32;11.95;;;;;;;;;;6216067;23;20008;-84
2021/12/27 12:13:21;;;;;;;14.57;12.63;;;;;;;;;;6216250;23;20008;-85
2021/12/27 12:16:01;;;;;;;15.43;12.23;;;;;;;;;;6216350;23;20420;-84
2021/12/27 12:18:31;;;;;;;15.38;12.77;;;;;;;;;;6216195;23;20019;-83
2021/12/27 12:20:57;;;;;;;14.48;11.50;;;;;;;;;;6215716;23;20313;-85
2021/12/27 12:23:22;;;;;;;13.82;11.75;;;;;;;;;;6216631;23;20001;-84
2021/12/27 12:25:57;;;;;;;13.93;12.05;;;;;;;;;;6214594;23;20092;-87
2021/12/27 12:28:22;;;;;;;16.25;11.68;;;;;;;;;;6214860;23;20005;-86
2021/12/27 12:30:50;;;;;;;13.93;11.68;;;;;;;;;;6214887;23;20066;-84
2021/12/27 12:33:18;;;;;;;13.77;11.90;;;;;;;;;;6215124;23;20008;-83
2021/12/27 12:35:46;;;;;;;14.82;12.02;;;;;;;;;;6216173;23;20080;-83
2021/12/27 12:38:15;;;;;;;15.95;11.55;;;;;;;;;;6216183;23;20336;-82
2021/12/27 12:40:43;;;;;;;12.48;10.90;;;;;;;;;;6216136;23;20363;-83
2021/12/27 12:43:09;;;;;;;13.43;10.73;;;;;;;;;;6216045;23;20004;-82
2021/12/27 12:45:38;;;;;;;15.25;10.77;;;;;;;;;;6216092;23;20076;-83
2021/12/27 17:17:23;;;;;;;20.17;14.32;;;;;;;;;;6168235;23;20318;-82
2021/12/27 17:19:49;;;;;;;21.52;15.57;;;;;;;;;;6157572;23;20336;-83
2021/12/27 17:22:15;;;;;;;23.67;14.43;;;;;;;;;;6157846;23;20009;-82
2021/12/27 17:24:40;;;;;;;20.35;14.45;;;;;;;;;;6157529;23;20005;-82
2021/12/27 17:27:09;;;;;;;20.13;14.43;;;;;;;;;;6157959;23;20051;-81
2021/12/27 17:29:35;;;;;;;26.05;15.15;;;;;;;;;;6157711;23;20002;-82
2021/12/27 17:32:00;;;;;;;21.73;15.32;;;;;;;;;;6156211;23;20120;-93
2021/12/27 17:34:26;;;;;;;19.80;14.13;;;;;;;;;;6155139;23;20032;-89
2021/12/27 17:36:51;;;;;;;19.88;14.77;;;;;;;;;;6155743;23;20006;-91
2021/12/27 17:39:21;;;;;;;19.30;13.65;;;;;;;;;;6155894;23;20010;-88
2021/12/27 17:41:48;;;;;;;22.10;14.40;;;;;;;;;;6157058;23;20012;-87
2021/12/27 17:44:13;;;;;;;21.00;14.60;;;;;;;;;;6155552;23;20029;-87
2021/12/27 17:46:41;;;;;;;22.70;15.05;;;;;;;;;;6155897;23;20013;-86
2021/12/27 17:49:07;;;;;;;21.90;14.93;;;;;;;;;;6157483;23;20081;-87
2021/12/27 17:51:32;;;;;;;20.10;14.40;;;;;;;;;;6155770;23;20477;-87
2021/12/27 17:53:58;;;;;;;19.58;13.77;;;;;;;;;;6155571;23;20032;-88
2021/12/27 17:56:23;;;;;;;18.80;13.73;;;;;;;;;;6157345;23;20006;-87
2021/12/27 17:58:49;;;;;;;19.75;14.38;;;;;;;;;;6157251;23;19997;-87
2021/12/27 18:01:16;;;;;;;20.70;14.65;;;;;;;;;;6157689;23;20001;-86
2021/12/27 18:03:42;;;;;;;24.33;16.08;;;;;;;;;;6155673;23;20033;-86
2021/12/27 18:06:08;;;;;;;20.60;14.50;;;;;;;;;;6155807;23;20377;-86
2021/12/27 18:08:34;;;;;;;22.73;15.77;;;;;;;;;;6155532;23;20017;-86
2021/12/27 18:11:01;;;;;;;23.45;17.05;;;;;;;;;;6158652;23;20056;-87
2021/12/27 18:13:26;;;;;;;29.20;18.10;;;;;;;;;;6156862;23;20005;-87
2021/12/27 18:15:54;;;;;;;28.75;18.75;;;;;;;;;;6156466;23;20491;-88
2021/12/27 18:18:20;;;;;;;22.98;14.63;;;;;;;;;;6158218;23;20013;-87
2021/12/27 18:20:47;;;;;;;22.60;14.90;;;;;;;;;;6156471;23;20001;-88
2021/12/27 18:23:12;;;;;;;19.17;14.55;;;;;;;;;;6158420;23;20013;-87
2021/12/27 18:25:38;;;;;;;19.55;13.52;;;;;;;;;;6157659;23;20012;-86
2021/12/27 18:28:05;;;;;;;22.42;14.90;;;;;;;;;;6158168;23;20005;-88
2021/12/27 18:30:30;;;;;;;26.08;17.60;;;;;;;;;;6156705;23;20013;-84
2021/12/27 18:32:56;;;;;;;33.50;22.85;;;;;;;;;;6156149;23;20055;-85
2021/12/27 18:35:22;;;;;;;23.25;16.58;;;;;;;;;;6157078;23;20080;-85
2021/12/27 18:37:49;;;;;;;29.00;18.05;;;;;;;;;;6155357;23;20025;-84
2021/12/27 18:40:15;;;;;;;26.42;17.10;;;;;;;;;;6155545;23;20005;-84
2021/12/27 18:42:42;;;;;;;25.45;17.55;;;;;;;;;;6157229;23;20015;-83
2021/12/27 18:45:09;;;;;;;27.35;18.55;;;;;;;;;;6156956;23;20052;-84
2021/12/27 18:47:36;;;;;;;26.70;19.58;;;;;;;;;;6156628;23;20425;-82
2021/12/27 18:50:03;;;;;;;28.60;20.05;;;;;;;;;;6156953;23;20056;-84
2021/12/27 18:52:28;;;;;;;30.13;20.92;;;;;;;;;;6155359;23;20041;-83
2021/12/27 18:54:54;;;;;;;30.20;19.40;;;;;;;;;;6157008;23;20005;-83
2021/12/27 18:57:20;;;;;;;27.20;18.58;;;;;;;;;;6155196;23;20019;-83
2021/12/27 18:59:45;;;;;;;26.85;17.45;;;;;;;;;;6156827;23;20058;-83
2021/12/27 19:02:11;;;;;;;27.25;18.83;;;;;;;;;;6156945;23;20011;-91
2021/12/27 19:04:36;;;;;;;25.30;16.45;;;;;;;;;;6156804;23;20303;-83
2021/12/27 19:07:05;;;;;;;26.10;18.42;;;;;;;;;;6157115;23;20063;-88
2021/12/27 19:09:31;;;;;;;26.90;18.05;;;;;;;;;;6157164;23;20033;-89
2021/12/27 19:11:57;;;;;;;26.45;18.80;;;;;;;;;;6155898;23;20056;-89
2021/12/27 19:14:22;;;;;;;24.27;17.20;;;;;;;;;;6155403;23;20041;-87
2021/12/27 19:16:48;;;;;;;26.92;17.92;;;;;;;;;;6156786;23;20041;-88
2021/12/27 19:19:14;;;;;;;28.83;18.40;;;;;;;;;;6155583;23;20433;-89
2021/12/27 19:21:39;;;;;;;28.50;18.17;;;;;;;;;;6155361;23;20076;-91
2021/12/27 19:24:06;;;;;;;27.13;18.83;;;;;;;;;;6156816;23;20072;-88
2021/12/27 19:26:31;;;;;;;27.90;18.85;;;;;;;;;;6155308;23;20327;-87
2021/12/27 19:28:57;;;;;;;28.30;18.25;;;;;;;;;;6156712;23;20033;-87
2021/12/27 19:31:23;;;;;;;24.90;17.90;;;;;;;;;;6156928;23;20001;-89
2021/12/27 19:33:48;;;;;;;26.15;18.10;;;;;;;;;;6155395;23;20048;-89
2021/12/27 19:36:13;;;;;;;27.38;18.67;;;;;;;;;;6155246;23;20059;-88
2021/12/27 19:38:39;;;;;;;29.70;18.63;;;;;;;;;;6155145;23;20077;-88
2021/12/27 19:41:05;;;;;;;27.55;17.80;;;;;;;;;;6155014;23;20088;-89
2021/12/27 19:43:30;;;;;;;30.35;18.60;;;;;;;;;;6155963;23;20016;-87
2021/12/27 19:45:56;;;;;;;28.90;18.77;;;;;;;;;;6154972;23;20009;-88
2021/12/27 19:48:21;;;;;;;26.17;17.98;;;;;;;;;;6157207;23;20369;-88
2021/12/27 19:50:47;;;;;;;27.08;18.27;;;;;;;;;;6155165;23;20012;-90
2021/12/27 19:53:14;;;;;;;29.08;18.67;;;;;;;;;;6154888;23;20002;-88
2021/12/27 19:55:40;;;;;;;26.85;17.85;;;;;;;;;;6155070;23;20067;-88
2021/12/27 19:58:06;;;;;;;27.42;18.27;;;;;;;;;;6155210;23;20037;-87
2021/12/27 20:00:32;;;;;;;29.73;18.90;;;;;;;;;;6155049;23;20013;-87
2021/12/27 20:02:59;;;;;;;24.75;17.20;;;;;;;;;;6156520;23;20052;-89
2021/12/27 20:05:25;;;;;;;30.02;18.73;;;;;;;;;;6154946;23;20053;-90
2021/12/27 20:07:51;;;;;;;27.15;18.05;;;;;;;;;;6154292;23;20016;-89
2021/12/27 20:10:23;;;;;;;25.17;18.08;;;;;;;;;;6154390;23;20009;-88
2021/12/27 20:12:57;;;;;;;29.20;19.67;;;;;;;;;;6154634;23;20005;-88
2021/12/27 20:15:29;;;;;;;28.02;19.90;;;;;;;;;;6156705;23;20464;-89
2021/12/27 20:17:56;;;;;;;27.63;20.63;;;;;;;;;;6154880;23;20085;-88
2021/12/27 20:20:23;;;;;;;29.48;20.92;;;;;;;;;;6154739;23;20016;-89
2021/12/27 20:22:48;;;;;;;31.05;21.92;;;;;;;;;;6154702;23;20024;-89
2021/12/27 20:25:14;;;;;;;33.40;22.83;;;;;;;;;;6156569;23;20005;-89
2021/12/27 20:27:39;;;;;;;32.13;23.15;;;;;;;;;;6154812;23;20005;-89
2021/12/27 20:30:06;;;;;;;33.55;23.13;;;;;;;;;;6154714;23;20306;-89
2021/12/27 20:32:32;;;;;;;31.98;22.60;;;;;;;;;;6154679;23;20077;-88
2021/12/27 20:34:58;;;;;;;33.85;23.67;;;;;;;;;;6154277;23;20029;-87
2021/12/27 20:37:25;;;;;;;31.75;21.85;;;;;;;;;;6156457;23;20002;-88
2021/12/27 20:39:52;;;;;;;31.48;22.35;;;;;;;;;;6154659;23;20010;-90
2021/12/27 20:42:18;;;;;;;31.00;21.92;;;;;;;;;;6154486;23;20041;-88
2021/12/27 20:44:44;;;;;;;34.72;20.90;;;;;;;;;;6154150;23;20013;-88
2021/12/27 20:47:09;;;;;;;32.47;21.42;;;;;;;;;;6154445;23;20009;-87
2021/12/27 20:49:35;;;;;;;33.85;21.55;;;;;;;;;;6156282;23;20025;-88
2021/12/27 20:52:00;;;;;;;32.28;21.52;;;;;;;;;;6154959;23;20016;-89
2021/12/27 20:54:26;;;;;;;31.02;21.20;;;;;;;;;;6154140;23;20006;-87
2021/12/27 20:56:52;;;;;;;27.13;20.13;;;;;;;;;;6154785;23;20013;-87
2021/12/27 20:59:18;;;;;;;30.17;20.65;;;;;;;;;;6155108;23;20055;-90
2021/12/27 21:01:43;;;;;;;28.85;21.65;;;;;;;;;;6154690;23;20006;-90
2021/12/27 21:04:09;;;;;;;29.67;19.42;;;;;;;;;;6155042;23;20008;-89
2021/12/27 21:06:37;;;;;;;30.27;19.77;;;;;;;;;;6154726;23;20016;-90
2021/12/27 21:09:08;;;;;;;29.83;21.02;;;;;;;;;;6154497;23;20009;-89
2021/12/27 21:11:35;;;;;;;30.30;21.35;;;;;;;;;;6154153;23;20025;-88
2021/12/27 21:14:02;;;;;;;30.10;21.27;;;;;;;;;;6154493;23;20032;-89
2021/12/27 21:16:28;;;;;;;30.17;21.13;;;;;;;;;;6156118;23;20001;-88
2021/12/27 21:18:56;;;;;;;28.17;20.67;;;;;;;;;;6156504;23;20014;-89
2021/12/27 21:21:21;;;;;;;30.83;21.05;;;;;;;;;;6156074;23;20012;-89
2021/12/27 21:23:47;;;;;;;32.55;22.85;;;;;;;;;;6157323;23;20005;-88
2021/12/27 21:26:14;;;;;;;32.80;21.70;;;;;;;;;;6157709;23;20006;-88
2021/12/27 21:28:39;;;;;;;29.05;21.17;;;;;;;;;;6156049;23;20009;-88
2021/12/27 21:31:05;;;;;;;29.40;19.95;;;;;;;;;;6157350;23;20029;-88
2021/12/27 21:33:31;;;;;;;28.20;18.75;;;;;;;;;;6155954;23;20083;-88
2021/12/27 21:35:57;;;;;;;28.40;19.13;;;;;;;;;;6155955;23;20501;-88
2021/12/27 21:38:22;;;;;;;29.25;19.73;;;;;;;;;;6157206;23;20066;-88
2021/12/27 21:40:48;;;;;;;28.60;20.92;;;;;;;;;;6155791;23;20029;-89
2021/12/27 21:43:13;;;;;;;28.58;20.17;;;;;;;;;;6155736;23;20013;-88
2021/12/27 21:45:39;;;;;;;26.10;19.55;;;;;;;;;;6156093;23;20005;-88
2021/12/27 21:48:06;;;;;;;28.08;20.45;;;;;;;;;;6157441;23;20009;-88
2021/12/27 21:50:37;;;;;;;31.02;20.65;;;;;;;;;;6155701;23;20002;-88
2021/12/27 21:53:04;;;;;;;32.50;20.92;;;;;;;;;;6157392;23;20005;-88
2021/12/27 21:55:34;;;;;;;28.42;20.08;;;;;;;;;;6155665;23;20009;-89
2021/12/27 21:58:01;;;;;;;27.02;21.38;;;;;;;;;;6156049;23;20016;-90
2021/12/27 22:00:32;;;;;;;28.52;21.27;;;;;;;;;;6157741;23;19997;-89
2021/12/27 22:02:58;;;;;;;32.38;23.08;;;;;;;;;;6155941;23;20014;-89
2021/12/27 22:05:26;;;;;;;33.60;23.27;;;;;;;;;;6157387;23;20001;-89
2021/12/27 22:07:52;;;;;;;31.25;22.33;;;;;;;;;;6157625;23;20072;-89
2021/12/27 22:10:20;;;;;;;32.08;22.63;;;;;;;;;;6156246;23;20096;-89
2021/12/27 22:12:46;;;;;;;33.22;22.33;;;;;;;;;;6157255;23;20326;-89
2021/12/27 22:15:14;;;;;;;32.10;22.48;;;;;;;;;;6155821;23;20006;-89
2021/12/27 22:17:40;;;;;;;32.72;21.30;;;;;;;;;;6157280;23;20080;-88
2021/12/27 22:20:07;;;;;;;31.55;20.23;;;;;;;;;;6157663;23;20024;-89
2021/12/27 22:22:33;;;;;;;33.28;22.67;;;;;;;;;;6155654;23;20124;-89
2021/12/27 22:24:59;;;;;;;32.72;22.77;;;;;;;;;;6157159;23;20333;-89
2021/12/27 22:27:25;;;;;;;33.33;22.67;;;;;;;;;;6155580;23;20010;-90
2021/12/27 22:29:50;;;;;;;33.35;22.52;;;;;;;;;;6155935;23;20189;-89
2021/12/27 22:32:16;;;;;;;32.00;22.77;;;;;;;;;;6155839;23;20373;-88
2021/12/27 22:34:42;;;;;;;32.63;22.85;;;;;;;;;;6155536;23;20052;-89
2021/12/27 22:37:07;;;;;;;34.35;23.40;;;;;;;;;;6155833;23;20084;-89
2021/12/27 22:39:33;;;;;;;31.30;23.25;;;;;;;;;;6157555;23;20005;-89
2021/12/27 22:41:58;;;;;;;34.88;22.95;;;;;;;;;;6156212;23;20049;-89
2021/12/27 22:44:24;;;;;;;33.33;22.92;;;;;;;;;;6155543;23;20009;-89
2021/12/27 22:46:50;;;;;;;30.90;21.42;;;;;;;;;;6157142;23;20006;-88
2021/12/27 22:49:15;;;;;;;32.17;22.67;;;;;;;;;;6156962;23;20081;-88
2021/12/27 22:51:41;;;;;;;32.15;23.20;;;;;;;;;;6157389;23;20552;-90
2021/12/27 22:54:06;;;;;;;31.85;22.20;;;;;;;;;;6157402;23;20088;-90
2021/12/27 22:56:31;;;;;;;35.33;23.38;;;;;;;;;;6155699;23;20002;-89
2021/12/27 22:58:57;;;;;;;36.83;24.83;;;;;;;;;;6156123;23;20012;-90
2021/12/27 23:01:22;;;;;;;29.08;20.95;;;;;;;;;;6155558;23;20002;-89
